createdAt,value
2023-04-23T00:01:53.986Z,4.40
2023-04-23T00:04:34.388Z,4.47
2023-04-23T00:07:08.756Z,4.80
2023-04-23T00:09:37.360Z,4.30
2023-04-23T00:12:11.812Z,4.60
2023-04-23T00:14:40.634Z,4.40
2023-04-23T00:17:27.306Z,5.17
2023-04-23T00:19:56.120Z,4.20
2023-04-23T00:22:33.314Z,4.67
2023-04-23T00:25:07.495Z,5.10
2023-04-23T00:27:41.640Z,4.60
2023-04-23T00:30:16.858Z,4.60
2023-04-23T00:33:02.638Z,4.20
2023-04-23T00:35:34.003Z,4.23
2023-04-23T00:38:05.983Z,4.43
2023-04-23T00:40:38.221Z,4.60
2023-04-23T00:43:11.726Z,4.70
2023-04-23T00:45:41.285Z,5.00
2023-04-23T00:48:12.543Z,4.80
2023-04-23T00:50:43.830Z,4.20
2023-04-23T00:53:14.975Z,5.10
2023-04-23T00:55:48.188Z,4.10
2023-04-23T00:58:24.331Z,4.70
2023-04-23T01:03:46.525Z,4.07
2023-04-23T01:06:31.527Z,4.07
2023-04-23T01:09:09.100Z,4.80
2023-04-23T01:11:41.366Z,4.90
2023-04-23T01:14:11.566Z,4.23
2023-04-23T01:16:48.177Z,4.70
2023-04-23T01:19:31.402Z,4.10
2023-04-23T01:22:08.763Z,4.23
2023-04-23T01:24:41.422Z,4.37
2023-04-23T01:27:10.153Z,4.60
2023-04-23T01:29:42.656Z,4.50
2023-04-23T01:32:25.729Z,4.40
2023-04-23T01:34:56.981Z,4.70
2023-04-23T01:37:34.099Z,4.53
2023-04-23T01:40:15.225Z,4.80
2023-04-23T01:42:46.895Z,4.60
2023-04-23T01:45:20.639Z,4.37
2023-04-23T01:47:51.401Z,4.83
2023-04-23T01:50:23.304Z,4.60
2023-04-23T01:52:55.363Z,4.90
2023-04-23T01:55:30.682Z,5.10
2023-04-23T01:58:04.471Z,4.63
2023-04-23T02:00:33.390Z,5.10
2023-04-23T02:03:03.585Z,4.87
2023-04-23T02:05:37.361Z,4.77
2023-04-23T02:08:09.157Z,4.93
2023-04-23T02:10:42.075Z,4.70
2023-04-23T02:13:14.702Z,4.60
2023-04-23T02:15:51.200Z,4.87
2023-04-23T02:18:21.879Z,5.00
2023-04-23T02:20:50.417Z,5.17
2023-04-23T02:23:20.647Z,5.50
2023-04-23T02:25:52.603Z,5.10
2023-04-23T02:28:32.341Z,5.50
2023-04-23T02:31:01.230Z,4.57
2023-04-23T02:33:33.185Z,3.90
2023-04-23T02:36:04.860Z,5.00
2023-04-23T02:38:36.846Z,4.80
2023-04-23T02:41:16.462Z,4.73
2023-04-23T02:43:53.267Z,4.30
2023-04-23T02:46:22.584Z,4.63
2023-04-23T02:48:52.879Z,5.97
2023-04-23T02:51:23.790Z,5.30
2023-04-23T02:53:58.237Z,5.33
2023-04-23T02:56:28.675Z,5.37
2023-04-23T02:59:03.775Z,5.53
2023-04-23T03:01:32.268Z,4.40
2023-04-23T03:04:03.854Z,4.73
2023-04-23T03:06:35.860Z,5.00
2023-04-23T03:09:10.315Z,4.90
2023-04-23T03:11:43.099Z,5.53
2023-04-23T03:14:17.480Z,5.20
2023-04-23T03:16:54.792Z,5.00
2023-04-23T03:19:27.212Z,5.30
2023-04-23T03:21:58.046Z,4.47
2023-04-23T03:24:27.312Z,5.17
2023-04-23T03:26:59.298Z,5.07
2023-04-23T03:29:28.803Z,5.03
2023-04-23T03:32:11.419Z,5.40
2023-04-23T03:34:41.198Z,4.57
2023-04-23T03:37:12.575Z,5.70
2023-04-23T03:39:44.451Z,5.23
2023-04-23T03:42:15.483Z,5.80
2023-04-23T03:44:47.778Z,5.50
2023-04-23T03:47:18.230Z,5.70
2023-04-23T03:49:49.174Z,5.40
2023-04-23T03:52:23.223Z,5.67
2023-04-23T03:54:52.375Z,5.53
2023-04-23T03:57:30.656Z,5.47
2023-04-23T04:00:18.252Z,4.70
2023-04-23T04:02:54.865Z,5.93
2023-04-23T04:05:28.611Z,5.47
2023-04-23T04:07:59.425Z,5.10
2023-04-23T04:10:29.239Z,5.87
2023-04-23T04:13:03.786Z,5.90
2023-04-23T04:15:43.270Z,5.93
2023-04-23T04:18:12.975Z,5.67
2023-04-23T04:20:44.324Z,6.17
2023-04-23T04:23:15.874Z,6.00
2023-04-23T04:25:47.713Z,6.27
2023-04-23T04:28:22.962Z,5.90
2023-04-23T04:30:59.668Z,6.43
2023-04-23T04:33:33.404Z,6.67
2023-04-23T04:36:03.838Z,5.33
2023-04-23T04:38:32.331Z,6.20
2023-04-23T04:41:11.883Z,6.37
2023-04-23T04:43:56.430Z,6.97
2023-04-23T04:46:29.911Z,5.80
2023-04-23T04:48:59.258Z,7.00
2023-04-23T04:51:28.560Z,6.73
2023-04-23T04:54:00.882Z,6.83
2023-04-23T04:56:34.907Z,7.10
2023-04-23T04:59:15.993Z,6.23
2023-04-23T05:01:53.194Z,6.33
2023-04-23T05:04:21.350Z,7.00
2023-04-23T05:06:52.530Z,7.17
2023-04-23T05:09:24.134Z,6.80
2023-04-23T05:11:57.580Z,7.00
2023-04-23T05:14:30.739Z,7.30
2023-04-23T05:17:02.486Z,7.10
2023-04-23T05:19:34.675Z,7.50
2023-04-23T05:22:04.678Z,7.40
2023-04-23T05:24:34.100Z,7.00
2023-04-23T05:27:10.790Z,7.33
2023-04-23T05:29:52.056Z,8.90
2023-04-23T05:32:23.858Z,7.70
2023-04-23T05:34:53.965Z,7.13
2023-04-23T05:37:22.615Z,8.63
2023-04-23T05:39:54.773Z,7.77
2023-04-23T05:42:26.078Z,6.90
2023-04-23T05:44:56.796Z,7.30
2023-04-23T05:47:28.141Z,7.47
2023-04-23T05:49:58.372Z,8.33
2023-04-23T05:52:31.619Z,7.57
2023-04-23T05:55:04.069Z,8.00
2023-04-23T05:57:35.919Z,8.10
2023-04-23T06:00:14.073Z,8.70
2023-04-23T06:02:42.998Z,7.20
2023-04-23T06:05:16.193Z,7.70
2023-04-23T06:07:48.188Z,7.70
2023-04-23T06:10:24.232Z,7.47
2023-04-23T06:13:01.245Z,8.00
2023-04-23T06:15:32.918Z,8.43
2023-04-23T06:18:01.667Z,7.80
2023-04-23T06:20:34.218Z,9.27
2023-04-23T06:23:04.039Z,8.27
2023-04-23T06:25:34.881Z,8.60
2023-04-23T06:28:03.451Z,8.23
2023-04-23T06:30:44.568Z,8.13
2023-04-23T06:33:26.064Z,7.93
2023-04-23T06:35:56.904Z,7.53
2023-04-23T06:38:27.023Z,7.83
2023-04-23T06:40:57.279Z,8.43
2023-04-23T06:43:26.906Z,7.30
2023-04-23T06:46:23.143Z,7.67
2023-04-23T06:48:54.358Z,7.60
2023-04-23T06:51:23.678Z,7.57
2023-04-23T06:53:54.994Z,8.27
2023-04-23T06:56:23.283Z,7.30
2023-04-23T06:58:52.637Z,7.50
2023-04-23T07:01:26.665Z,7.37
2023-04-23T07:03:57.643Z,7.70
2023-04-23T07:06:29.476Z,7.77
2023-04-23T07:09:01.551Z,7.50
2023-04-23T07:11:34.334Z,8.00
2023-04-23T07:14:08.821Z,6.83
2023-04-23T07:16:45.475Z,7.53
2023-04-23T07:19:14.573Z,6.93
2023-04-23T07:21:48.397Z,7.30
2023-04-23T07:24:19.080Z,6.87
2023-04-23T07:26:50.793Z,7.00
2023-04-23T07:29:22.695Z,7.00
2023-04-23T07:32:06.263Z,7.30
2023-04-23T07:34:39.578Z,6.63
2023-04-23T07:37:12.089Z,6.50
2023-04-23T07:39:43.396Z,6.40
2023-04-23T07:42:16.631Z,6.03
2023-04-23T07:44:44.745Z,6.20
2023-04-23T07:47:15.699Z,5.73
2023-04-23T07:49:46.755Z,6.27
2023-04-23T07:52:17.582Z,6.30
2023-04-23T07:54:54.536Z,6.37
2023-04-23T07:57:31.679Z,5.80
2023-04-23T08:00:10.430Z,6.33
2023-04-23T08:02:45.896Z,5.80
2023-04-23T08:05:17.851Z,6.20
2023-04-23T08:07:53.947Z,6.13
2023-04-23T08:10:25.779Z,6.00
2023-04-23T08:12:54.835Z,5.90
2023-04-23T08:15:24.507Z,5.50
2023-04-23T08:17:54.364Z,5.53
2023-04-23T08:20:24.175Z,5.80
2023-04-23T08:22:54.076Z,5.87
2023-04-23T08:25:24.087Z,5.70
2023-04-23T08:27:54.888Z,5.60
2023-04-23T08:30:29.922Z,4.87
2023-04-23T08:33:06.129Z,5.80
2023-04-23T08:35:41.871Z,5.80
2023-04-23T08:38:12.565Z,5.43
2023-04-23T08:40:43.487Z,5.93
2023-04-23T08:43:18.936Z,5.47
2023-04-23T08:45:51.568Z,4.80
2023-04-23T08:48:25.331Z,5.50
2023-04-23T08:50:55.040Z,5.40
2023-04-23T08:53:28.040Z,6.00
2023-04-23T08:55:57.645Z,5.70
2023-04-23T08:58:28.852Z,5.40
2023-04-23T09:01:00.790Z,5.00
2023-04-23T09:03:34.534Z,5.00
2023-04-23T09:06:05.830Z,5.10
2023-04-23T09:08:44.758Z,5.50
2023-04-23T09:11:15.187Z,5.73
2023-04-23T09:13:46.388Z,5.37
2023-04-23T09:16:23.856Z,4.90
2023-04-23T09:18:58.886Z,4.87
2023-04-23T09:21:28.440Z,4.67
2023-04-23T09:24:01.927Z,5.67
2023-04-23T09:26:30.288Z,5.13
2023-04-23T09:28:59.651Z,5.10
2023-04-23T09:31:31.437Z,5.30
2023-04-23T09:34:01.013Z,5.07
2023-04-23T09:36:34.740Z,4.80
2023-04-23T09:39:06.446Z,4.77
2023-04-23T09:41:45.313Z,5.50
2023-04-23T09:44:23.487Z,4.73
2023-04-23T09:46:51.899Z,5.00
2023-04-23T09:49:32.908Z,4.50
2023-04-23T09:52:07.747Z,4.53
2023-04-23T09:54:37.062Z,5.20
2023-04-23T09:57:16.467Z,4.73
2023-04-23T09:59:51.293Z,4.40
2023-04-23T10:02:28.802Z,4.90
2023-04-23T10:05:21.762Z,4.37
2023-04-23T10:07:59.630Z,4.30
2023-04-23T10:10:30.050Z,4.60
2023-04-23T10:13:07.084Z,4.40
2023-04-23T10:15:38.086Z,4.10
2023-04-23T10:18:18.820Z,4.30
2023-04-23T10:20:55.771Z,4.50
2023-04-23T10:23:27.362Z,4.70
2023-04-23T10:25:59.153Z,4.47
2023-04-23T10:28:32.173Z,3.83
2023-04-23T10:31:02.620Z,4.90
2023-04-23T10:33:45.655Z,4.03
2023-04-23T10:36:38.599Z,4.20
2023-04-23T10:39:24.044Z,3.93
2023-04-23T10:42:02.379Z,3.60
2023-04-23T10:47:19.190Z,4.00
2023-04-23T10:49:55.581Z,4.50
2023-04-23T10:52:42.659Z,4.30
2023-04-23T10:55:23.678Z,4.60
2023-04-23T10:58:13.495Z,4.80
2023-04-23T11:00:51.070Z,4.80
2023-04-23T11:03:41.607Z,4.20
2023-04-23T11:09:09.328Z,4.80
2023-04-23T11:11:44.882Z,4.30
2023-04-23T11:14:28.308Z,4.83
2023-04-23T11:16:59.718Z,4.10
2023-04-23T11:19:31.416Z,3.83
2023-04-23T11:22:07.227Z,4.00
2023-04-23T11:24:42.310Z,4.80
2023-04-23T11:27:12.248Z,3.90
2023-04-23T11:29:43.483Z,4.13
2023-04-23T11:32:28.220Z,4.20
2023-04-23T11:35:00.575Z,4.10
2023-04-23T11:37:37.034Z,3.60
2023-04-23T11:40:18.605Z,4.03
2023-04-23T11:42:57.658Z,4.00
2023-04-23T11:45:36.260Z,3.83
2023-04-23T11:48:07.955Z,4.50
2023-04-23T11:50:41.927Z,3.97
2023-04-23T11:53:13.173Z,4.17
2023-04-23T11:55:44.295Z,4.20
2023-04-23T11:58:12.664Z,3.80
2023-04-23T12:00:47.050Z,4.67
2023-04-23T12:03:26.948Z,4.47
2023-04-23T12:06:01.156Z,4.30
2023-04-23T12:08:34.936Z,4.50
2023-04-23T12:11:08.742Z,3.77
2023-04-23T12:13:42.981Z,3.77
2023-04-23T12:16:12.289Z,3.57
2023-04-23T12:18:44.504Z,3.50
2023-04-23T12:21:20.966Z,4.37
2023-04-23T12:23:53.127Z,4.00
2023-04-23T12:26:27.321Z,4.03
2023-04-23T12:29:00.669Z,3.50
2023-04-23T12:31:32.555Z,3.40
2023-04-23T12:34:07.531Z,3.77
2023-04-23T12:36:43.345Z,3.40
2023-04-23T12:39:29.716Z,3.63
2023-04-23T12:42:08.853Z,3.63
2023-04-23T12:44:39.390Z,3.87
2023-04-23T12:47:14.325Z,3.30
2023-04-23T12:49:44.121Z,3.97
2023-04-23T12:52:14.035Z,3.47
2023-04-23T12:54:52.747Z,3.33
2023-04-23T12:57:28.053Z,3.70
2023-04-23T12:59:59.731Z,3.83
2023-04-23T13:02:30.441Z,4.00
2023-04-23T13:05:01.479Z,3.33
2023-04-23T13:07:30.247Z,3.43
2023-04-23T13:10:06.971Z,3.70
2023-04-23T13:12:48.261Z,3.20
2023-04-23T13:15:22.019Z,2.80
2023-04-23T13:17:51.650Z,3.40
2023-04-23T13:20:29.491Z,3.47
2023-04-23T13:23:02.993Z,3.23
2023-04-23T13:25:32.089Z,3.00
2023-04-23T13:28:10.804Z,3.10
2023-04-23T13:30:42.276Z,3.10
2023-04-23T13:33:10.658Z,2.90
2023-04-23T13:35:40.423Z,3.53
2023-04-23T13:38:09.641Z,3.43
2023-04-23T13:40:50.698Z,3.23
2023-04-23T13:43:22.442Z,3.80
2023-04-23T13:46:01.280Z,3.27
2023-04-23T13:48:33.082Z,3.53
2023-04-23T13:51:06.487Z,3.40
2023-04-23T13:53:43.646Z,3.20
2023-04-23T13:56:12.176Z,2.80
2023-04-23T13:58:51.772Z,3.40
2023-04-23T14:01:23.650Z,3.13
2023-04-23T14:04:00.882Z,3.50
2023-04-23T14:06:34.642Z,3.40
2023-04-23T14:09:14.009Z,3.93
2023-04-23T14:11:45.812Z,3.30
2023-04-23T14:14:21.002Z,3.70
2023-04-23T14:16:52.791Z,3.40
2023-04-23T14:19:30.024Z,3.40
2023-04-23T14:21:58.226Z,3.40
2023-04-23T14:24:30.095Z,3.70
2023-04-23T14:26:59.815Z,3.40
2023-04-23T14:29:38.962Z,4.50
2023-04-23T14:32:09.856Z,4.30
2023-04-23T14:34:41.686Z,3.70
2023-04-23T14:37:13.226Z,4.40
2023-04-23T14:39:42.723Z,3.47
2023-04-23T14:42:11.397Z,3.60
2023-04-23T14:44:47.582Z,3.80
2023-04-23T14:47:16.496Z,3.83
2023-04-23T14:49:46.208Z,3.80
2023-04-23T14:52:15.703Z,3.13
2023-04-23T14:54:46.457Z,3.97
2023-04-23T14:57:16.206Z,4.40
2023-04-23T14:59:50.478Z,4.63
2023-04-23T15:02:21.741Z,4.10
2023-04-23T15:04:52.233Z,3.50
2023-04-23T15:07:33.035Z,4.07
2023-04-23T15:10:08.424Z,4.17
2023-04-23T15:13:12.473Z,3.10
2023-04-23T15:15:45.738Z,3.33
2023-04-23T15:18:26.407Z,2.93
2023-04-23T15:20:58.577Z,3.27
2023-04-23T15:23:27.844Z,3.07
2023-04-23T15:25:58.665Z,3.50
2023-04-23T15:28:29.370Z,3.70
2023-04-23T15:31:13.238Z,3.70
2023-04-23T15:33:42.825Z,3.40
2023-04-23T15:36:14.381Z,3.90
2023-04-23T15:38:57.131Z,3.43
2023-04-23T15:41:27.154Z,3.60
2023-04-23T15:44:04.004Z,3.57
2023-04-23T15:46:34.703Z,4.00
2023-04-23T15:49:13.498Z,3.67
2023-04-23T15:51:45.124Z,3.73
2023-04-23T15:54:29.218Z,3.83
2023-04-23T15:57:01.902Z,3.20
2023-04-23T15:59:36.213Z,3.67
2023-04-23T16:02:09.997Z,3.47
2023-04-23T16:04:44.942Z,3.93
2023-04-23T16:07:17.318Z,4.10
2023-04-23T16:09:47.421Z,3.50
2023-04-23T16:12:23.893Z,4.90
2023-04-23T16:14:57.679Z,3.77
2023-04-23T16:17:32.622Z,3.93
2023-04-23T16:20:05.237Z,3.73
2023-04-23T16:22:37.278Z,3.80
2023-04-23T16:25:14.566Z,3.30
2023-04-23T16:27:46.933Z,3.67
2023-04-23T16:30:22.889Z,3.30
2023-04-23T16:33:05.297Z,3.77
2023-04-23T16:35:37.291Z,3.40
2023-04-23T16:38:12.946Z,3.50
2023-04-23T16:40:45.877Z,4.03
2023-04-23T16:43:23.495Z,3.63
2023-04-23T16:45:53.656Z,3.97
2023-04-23T16:48:33.931Z,3.73
2023-04-23T16:51:16.015Z,3.40
2023-04-23T16:53:47.559Z,3.57
2023-04-23T16:56:23.840Z,3.60
2023-04-23T16:58:55.213Z,3.53
2023-04-23T17:01:35.306Z,3.63
2023-04-23T17:04:11.270Z,3.50
2023-04-23T17:06:45.459Z,3.80
2023-04-23T17:09:19.919Z,3.40
2023-04-23T17:12:02.133Z,3.40
2023-04-23T17:14:40.183Z,3.40
2023-04-23T17:17:16.370Z,3.53
2023-04-23T17:19:50.588Z,3.83
2023-04-23T17:22:22.236Z,3.63
2023-04-23T17:24:53.436Z,3.63
2023-04-23T17:27:27.392Z,3.23
2023-04-23T17:30:05.999Z,3.40
2023-04-23T17:32:42.087Z,4.10
2023-04-23T17:35:12.902Z,3.90
2023-04-23T17:37:43.050Z,3.17
2023-04-23T17:40:26.679Z,2.50
2023-04-23T17:43:06.124Z,2.37
2023-04-23T17:45:36.560Z,2.70
2023-04-23T17:48:07.630Z,2.50
2023-04-23T17:50:42.357Z,2.27
2023-04-23T17:53:31.674Z,2.50
2023-04-23T17:56:07.458Z,2.43
2023-04-23T17:58:47.801Z,2.43
2023-04-23T18:01:31.639Z,2.27
2023-04-23T18:04:09.503Z,2.70
2023-04-23T18:06:55.748Z,2.70
2023-04-23T18:09:33.558Z,2.70
2023-04-23T18:12:15.199Z,2.57
2023-04-23T18:14:45.240Z,2.30
2023-04-23T18:17:17.764Z,2.50
2023-04-23T18:19:49.566Z,2.57
2023-04-23T18:22:26.864Z,2.97
2023-04-23T18:24:57.824Z,2.20
2023-04-23T18:27:34.559Z,2.50
2023-04-23T18:30:05.876Z,2.40
2023-04-23T18:32:52.880Z,2.40
2023-04-23T18:35:25.115Z,2.60
2023-04-23T18:38:07.273Z,2.70
2023-04-23T18:40:46.017Z,3.13
2023-04-23T18:43:17.188Z,2.80
2023-04-23T18:45:54.208Z,2.30
2023-04-23T18:48:43.678Z,2.73
2023-04-23T18:51:30.872Z,2.50
2023-04-23T18:54:22.617Z,2.87
2023-04-23T18:56:54.490Z,3.23
2023-04-23T18:59:33.152Z,2.70
2023-04-23T19:02:05.549Z,3.03
2023-04-23T19:04:36.156Z,3.20
2023-04-23T19:07:06.490Z,3.37
2023-04-23T19:09:37.847Z,2.83
2023-04-23T19:12:17.689Z,3.83
2023-04-23T19:15:00.061Z,4.27
2023-04-23T19:17:31.016Z,3.40
2023-04-23T19:20:11.973Z,3.60
2023-04-23T19:22:52.614Z,3.53
2023-04-23T19:25:36.785Z,3.67
2023-04-23T19:28:13.110Z,3.40
2023-04-23T19:30:43.808Z,3.00
2023-04-23T19:33:15.860Z,4.40
2023-04-23T19:35:50.526Z,3.43
2023-04-23T19:38:43.317Z,3.47
2023-04-23T19:41:30.398Z,3.30
2023-04-23T19:44:15.759Z,3.00
2023-04-23T19:46:45.389Z,3.00
2023-04-23T19:49:31.361Z,3.33
2023-04-23T19:52:11.397Z,3.10
2023-04-23T19:54:50.121Z,3.17
2023-04-23T19:57:27.084Z,3.10
2023-04-23T20:00:15.740Z,3.80
2023-04-23T20:02:48.205Z,3.37
2023-04-23T20:05:17.634Z,3.47
2023-04-23T20:07:50.005Z,3.50
2023-04-23T20:10:25.330Z,3.83
2023-04-23T20:13:08.156Z,3.87
2023-04-23T20:15:39.929Z,3.20
2023-04-23T20:18:09.976Z,3.50
2023-04-23T20:20:47.979Z,2.73
2023-04-23T20:23:21.890Z,3.13
2023-04-23T20:25:56.951Z,3.00
2023-04-23T20:28:28.026Z,2.93
2023-04-23T20:31:00.147Z,2.87
2023-04-23T20:33:31.958Z,3.20
2023-04-23T20:36:01.674Z,3.57
2023-04-23T20:38:33.376Z,3.37
2023-04-23T20:41:11.122Z,3.90
2023-04-23T20:43:49.090Z,3.73
2023-04-23T20:46:20.930Z,3.53
2023-04-23T20:49:04.051Z,4.60
2023-04-23T20:51:34.390Z,4.10
2023-04-23T20:54:06.916Z,4.67
2023-04-23T20:56:41.427Z,4.27
2023-04-23T20:59:23.320Z,4.20
2023-04-23T21:02:03.627Z,4.20
2023-04-23T21:04:32.908Z,4.90
2023-04-23T21:07:04.730Z,4.40
2023-04-23T21:09:41.799Z,3.87
2023-04-23T21:12:11.639Z,3.90
2023-04-23T21:14:49.996Z,4.30
2023-04-23T21:17:24.082Z,4.30
2023-04-23T21:19:54.341Z,4.20
2023-04-23T21:22:39.734Z,4.30
2023-04-23T21:25:13.644Z,3.90
2023-04-23T21:27:46.045Z,3.37
2023-04-23T21:30:27.818Z,3.57
2023-04-23T21:33:00.786Z,3.10
2023-04-23T21:35:32.395Z,3.53
2023-04-23T21:38:03.851Z,3.60
2023-04-23T21:40:34.419Z,3.83
2023-04-23T21:43:04.966Z,3.37
2023-04-23T21:45:40.125Z,3.50
2023-04-23T21:48:09.387Z,4.03
2023-04-23T21:50:43.292Z,3.40
2023-04-23T21:53:13.916Z,3.73
2023-04-23T21:55:44.830Z,3.47
2023-04-23T21:58:18.471Z,3.87
2023-04-23T22:00:51.135Z,3.30
2023-04-23T22:03:30.206Z,3.60
2023-04-23T22:06:10.777Z,4.00
2023-04-23T22:08:41.559Z,3.93
2023-04-23T22:11:19.083Z,3.20
2023-04-23T22:13:51.053Z,3.20
2023-04-23T22:16:29.378Z,3.40
2023-04-23T22:19:02.478Z,4.07
2023-04-23T22:21:33.675Z,4.20
2023-04-23T22:24:04.155Z,3.60
2023-04-23T22:26:34.057Z,3.70
2023-04-23T22:29:04.815Z,4.07
2023-04-23T22:31:48.018Z,3.90
2023-04-23T22:34:20.886Z,4.13
2023-04-23T22:36:52.385Z,3.83
2023-04-23T22:39:22.795Z,4.47
2023-04-23T22:41:51.989Z,3.60
2023-04-23T22:44:23.592Z,3.80
2023-04-23T22:47:04.084Z,4.03
2023-04-23T22:49:33.203Z,4.30
2023-04-23T22:52:10.870Z,4.50
2023-04-23T22:54:44.313Z,4.47
2023-04-23T22:57:30.088Z,4.67
2023-04-23T23:00:03.668Z,4.60
2023-04-23T23:02:49.022Z,4.90
2023-04-23T23:05:26.753Z,4.53
2023-04-23T23:08:00.644Z,4.90
2023-04-23T23:10:39.395Z,4.90
2023-04-23T23:13:08.861Z,5.00
2023-04-23T23:15:45.379Z,4.40
2023-04-23T23:18:24.883Z,4.53
2023-04-23T23:20:56.109Z,4.80
2023-04-23T23:23:28.374Z,5.10
2023-04-23T23:26:05.358Z,4.87
2023-04-23T23:28:33.496Z,4.90
2023-04-23T23:31:10.543Z,4.97
2023-04-23T23:33:49.891Z,4.30
2023-04-23T23:36:20.591Z,4.90
2023-04-23T23:38:52.870Z,4.63
2023-04-23T23:41:30.400Z,4.40
2023-04-23T23:44:03.673Z,5.13
2023-04-23T23:46:35.473Z,4.63
2023-04-23T23:49:08.486Z,4.10
2023-04-23T23:51:44.969Z,4.57
2023-04-23T23:54:27.272Z,4.30
2023-04-23T23:56:59.609Z,4.93
2023-04-23T23:59:28.650Z,4.40
